Time;durP1;ratioP1;P1;durP2;ratioP2;P2;SDS_P1;SDS_P2;PMS_P1;PMS_P2;Temp;Humidity;BMP_temperature;BMP_pressure;BME280_temperature;BME280_humidity;BME280_pressure;Samples;Min_cycle;Max_cycle;Signal;HPM_P1;HPM_P2
2022/02/26 00:01:40;;;;;;;20.60;8.68;;;;;;;5.14;36.98;93920.72;5019999;28;20036;-77
2022/02/26 00:04:06;;;;;;;16.52;8.88;;;;;;;5.27;36.97;93939.63;5017770;28;20033;-77
2022/02/26 00:06:31;;;;;;;38.30;15.15;;;;;;;5.48;36.98;93947.06;5015764;28;20052;-76
2022/02/26 00:08:57;;;;;;;30.80;15.27;;;;;;;5.47;37.01;93942.88;5016954;28;20053;-78
2022/02/26 00:11:22;;;;;;;23.88;11.38;;;;;;;5.45;36.83;93936.28;5017807;28;20052;-76
2022/02/26 00:13:48;;;;;;;21.13;11.93;;;;;;;5.17;37.33;93929.94;5020204;28;20037;-75
2022/02/26 00:16:13;;;;;;;24.05;11.35;;;;;;;5.20;37.51;93947.03;5022071;28;20052;-73
2022/02/26 00:18:39;;;;;;;24.50;11.98;;;;;;;5.12;37.43;93938.66;5020429;28;20060;-76
2022/02/26 00:21:08;;;;;;;30.27;12.35;;;;;;;5.06;37.91;93971.41;5020591;28;20045;-73
2022/02/26 00:23:34;;;;;;;47.97;17.67;;;;;;;5.03;37.84;93971.97;5018276;28;20303;-73
2022/02/26 00:25:59;;;;;;;37.80;17.60;;;;;;;4.98;38.03;93969.34;5016495;28;20032;-73
2022/02/26 00:28:26;;;;;;;50.00;21.10;;;;;;;4.93;38.30;93982.56;5016657;28;20052;-75
2022/02/26 00:30:52;;;;;;;52.05;20.40;;;;;;;4.80;38.72;93980.50;5018620;28;20036;-74
2022/02/26 00:33:18;;;;;;;31.65;14.55;;;;;;;4.77;38.92;93988.97;5017893;28;20419;-74
2022/02/26 00:35:43;;;;;;;32.17;15.07;;;;;;;4.80;38.80;93988.41;5013397;28;20041;-74
2022/02/26 00:38:08;;;;;;;22.83;12.40;;;;;;;4.71;39.01;93958.44;5020739;28;20029;-75
2022/02/26 00:40:34;;;;;;;21.85;13.52;;;;;;;4.69;39.02;93953.47;5030811;28;21473;-74
2022/02/26 00:43:00;;;;;;;18.27;11.23;;;;;;;4.84;39.16;93975.50;5020011;28;20037;-75
2022/02/26 00:45:25;;;;;;;19.25;9.60;;;;;;;4.70;39.17;93954.22;5017445;28;20107;-74
2022/02/26 00:47:51;;;;;;;23.90;11.18;;;;;;;4.89;39.42;93970.22;5015028;28;20053;-74
2022/02/26 00:50:17;;;;;;;23.58;11.38;;;;;;;4.78;39.15;93929.94;5018370;28;20033;-75
2022/02/26 00:52:42;;;;;;;19.52;11.65;;;;;;;5.03;38.92;93956.13;5014848;28;20151;-75
2022/02/26 00:55:09;;;;;;;23.52;11.48;;;;;;;5.07;38.84;93962.44;5023926;28;20122;-75
2022/02/26 00:57:35;;;;;;;27.67;11.68;;;;;;;4.98;39.03;93947.47;5019022;28;20045;-75
2022/02/26 01:00:04;;;;;;;25.83;12.43;;;;;;;4.98;39.02;93940.38;5021959;28;20562;-73
2022/02/26 01:02:29;;;;;;;26.73;13.20;;;;;;;4.94;38.69;93918.22;5022004;28;20040;-73
2022/02/26 01:04:55;;;;;;;29.17;11.75;;;;;;;5.16;38.51;93927.56;5024876;28;20490;-75
2022/02/26 01:07:20;;;;;;;18.80;10.05;;;;;;;5.10;38.42;93935.50;5019905;28;20602;-74
2022/02/26 01:09:45;;;;;;;16.40;8.70;;;;;;;4.91;38.72;93933.81;5019842;28;20045;-74
2022/02/26 01:12:12;;;;;;;27.52;13.10;;;;;;;4.79;38.50;93939.44;5020291;28;20041;-74
2022/02/26 01:14:39;;;;;;;20.50;9.80;;;;;;;4.86;38.81;93960.19;5018497;28;20037;-75
2022/02/26 01:17:06;;;;;;;26.90;12.05;;;;;;;4.81;39.37;93962.88;5021637;28;20025;-77
2022/02/26 01:19:34;;;;;;;16.25;10.15;;;;;;;4.68;39.83;93953.72;5022319;28;20090;-73
2022/02/26 01:22:00;;;;;;;21.13;9.68;;;;;;;4.82;39.81;93959.16;5026245;28;20152;-73
2022/02/26 01:24:25;;;;;;;21.73;9.90;;;;;;;4.70;39.61;93946.31;5020380;28;20048;-74
2022/02/26 01:26:51;;;;;;;15.23;9.02;;;;;;;4.87;39.68;93952.03;5020628;28;20403;-75
2022/02/26 01:29:16;;;;;;;24.08;9.60;;;;;;;4.90;39.57;93969.13;5022571;28;20036;-75
2022/02/26 01:31:42;;;;;;;24.95;11.73;;;;;;;5.02;39.47;93959.03;5013720;28;20187;-75
2022/02/26 01:34:08;;;;;;;28.83;13.20;;;;;;;5.02;39.05;93969.59;5016743;28;21090;-76
2022/02/26 01:36:38;;;;;;;24.30;11.10;;;;;;;5.08;39.04;93958.75;5018966;28;20104;-72
2022/02/26 01:39:09;;;;;;;23.67;11.30;;;;;;;4.88;39.13;93952.81;5020679;28;20041;-75
2022/02/26 01:41:39;;;;;;;23.80;12.80;;;;;;;4.75;39.83;93962.09;5018393;28;20080;-74
2022/02/26 01:44:06;;;;;;;26.38;13.73;;;;;;;4.70;39.79;93935.78;5020977;28;20123;-75
2022/02/26 01:46:32;;;;;;;30.23;16.50;;;;;;;4.70;39.91;93952.38;5015405;28;20292;-74
2022/02/26 01:48:57;;;;;;;32.08;17.80;;;;;;;4.63;39.79;93965.09;5013344;28;20083;-75
2022/02/26 01:51:24;;;;;;;37.72;19.08;;;;;;;4.61;39.72;93942.69;5020976;28;20041;-74
2022/02/26 01:53:50;;;;;;;37.90;17.02;;;;;;;4.92;39.57;93959.91;5022940;28;20037;-75
2022/02/26 01:56:15;;;;;;;38.10;18.67;;;;;;;4.88;39.83;93961.50;5019528;28;20056;-74
2022/02/26 01:58:41;;;;;;;40.00;18.27;;;;;;;4.78;39.65;93935.22;5015246;28;20098;-74
2022/02/26 02:01:08;;;;;;;35.65;16.73;;;;;;;4.75;39.99;93958.72;5015475;28;20033;-74
2022/02/26 02:03:33;;;;;;;32.55;14.82;;;;;;;4.85;39.57;93964.69;5020859;28;20427;-75
2022/02/26 02:06:00;;;;;;;32.35;16.23;;;;;;;4.82;40.06;93954.69;5020809;28;20048;-75
2022/02/26 02:08:25;;;;;;;27.92;14.75;;;;;;;4.62;40.18;93960.06;5022702;28;20740;-74
2022/02/26 02:10:53;;;;;;;22.85;12.15;;;;;;;3.73;40.89;93953.00;5014824;28;20491;-74
2022/02/26 02:13:19;;;;;;;32.95;14.07;;;;;;;4.22;40.62;93974.97;5013721;28;20148;-74
2022/02/26 02:15:45;;;;;;;23.55;13.32;;;;;;;4.49;40.01;93979.13;5020233;28;20033;-76
2022/02/26 02:18:12;;;;;;;23.40;12.27;;;;;;;4.16;40.43;93973.41;5020396;28;20034;-75
2022/02/26 02:20:39;;;;;;;25.95;12.10;;;;;;;4.17;40.20;93969.72;5015519;28;20047;-74
2022/02/26 02:23:05;;;;;;;34.15;13.02;;;;;;;4.06;41.02;93947.13;5031243;28;20190;-74
2022/02/26 02:25:34;;;;;;;23.25;10.90;;;;;;;4.37;40.60;93973.34;5020959;28;20483;-74
2022/02/26 02:28:01;;;;;;;24.17;12.15;;;;;;;4.44;40.14;93987.03;5019488;28;20034;-75
2022/02/26 02:30:27;;;;;;;25.90;11.90;;;;;;;4.44;40.39;93984.41;5016131;28;20044;-74
2022/02/26 02:32:54;;;;;;;23.35;11.90;;;;;;;4.48;40.47;93991.50;5015582;28;20056;-74
2022/02/26 02:35:30;;;;;;;24.55;10.95;;;;;;;4.35;40.36;93986.81;5019297;28;20021;-73
2022/02/26 02:37:58;;;;;;;21.33;10.77;;;;;;;4.41;40.53;93987.56;5025108;28;20037;-74
2022/02/26 02:40:24;;;;;;;20.40;11.32;;;;;;;4.40;40.27;93957.03;5024135;28;20041;-75
2022/02/26 02:42:51;;;;;;;18.20;9.93;;;;;;;4.58;40.44;93986.19;5035159;28;20072;-75
2022/02/26 02:45:18;;;;;;;13.35;8.75;;;;;;;4.33;41.10;93988.13;5020565;28;20063;-75
2022/02/26 02:47:43;;;;;;;18.27;9.75;;;;;;;4.35;40.75;93996.56;5013517;28;20870;-74
2022/02/26 02:50:09;;;;;;;16.27;9.15;;;;;;;4.05;41.17;93981.63;5026329;28;20155;-75
2022/02/26 02:52:34;;;;;;;15.60;8.40;;;;;;;4.22;41.54;93993.41;5017230;28;20024;-75
2022/02/26 02:55:00;;;;;;;17.20;7.88;;;;;;;4.13;41.44;93973.94;5017277;28;20040;-74
2022/02/26 02:57:25;;;;;;;18.85;8.27;;;;;;;4.23;41.69;93991.56;5018483;28;20049;-74
2022/02/26 02:59:51;;;;;;;11.80;7.15;;;;;;;4.05;41.44;93950.84;5024812;28;20041;-72
2022/02/26 03:02:16;;;;;;;11.57;7.00;;;;;;;4.23;41.82;93994.97;5018442;28;20078;-74
2022/02/26 03:04:42;;;;;;;24.80;7.15;;;;;;;4.08;42.16;93975.81;5022796;28;20021;-75
2022/02/26 03:07:07;;;;;;;16.90;7.78;;;;;;;3.97;43.04;93977.69;5023307;28;20078;-76
2022/02/26 03:09:33;;;;;;;14.52;7.85;;;;;;;4.10;43.32;94005.28;5017088;28;20041;-73
2022/02/26 03:11:59;;;;;;;16.63;8.10;;;;;;;4.25;43.24;94000.78;5015968;28;20025;-74
2022/02/26 03:14:24;;;;;;;19.60;8.63;;;;;;;4.15;43.32;93992.91;5020760;28;20036;-74
2022/02/26 03:16:50;;;;;;;13.23;7.38;;;;;;;4.18;43.56;93992.38;5011175;28;20032;-75
2022/02/26 03:19:15;;;;;;;18.40;9.68;;;;;;;4.02;44.18;94001.34;5022316;28;20041;-74
2022/02/26 03:21:41;;;;;;;16.85;9.13;;;;;;;3.79;45.13;94007.19;5016911;28;20502;-74
2022/02/26 03:24:08;;;;;;;17.42;9.50;;;;;;;3.80;45.70;94008.78;5018832;28;20677;-74
2022/02/26 03:26:34;;;;;;;18.02;9.50;;;;;;;3.57;45.98;94011.97;5022018;28;20056;-75
2022/02/26 03:29:00;;;;;;;23.17;9.65;;;;;;;3.62;46.42;94022.50;5022063;28;20028;-75
2022/02/26 03:31:26;;;;;;;14.00;8.88;;;;;;;3.73;46.41;94031.94;5018885;28;20094;-74
2022/02/26 03:33:51;;;;;;;18.33;10.27;;;;;;;3.62;46.67;94025.13;5014909;28;20041;-74
2022/02/26 03:36:16;;;;;;;18.33;9.30;;;;;;;3.52;47.23;94019.84;5016690;28;20124;-75
2022/02/26 03:38:42;;;;;;;23.38;10.43;;;;;;;3.37;47.55;94010.94;5013922;28;21023;-77
2022/02/26 03:41:10;;;;;;;13.77;8.77;;;;;;;3.71;47.32;94052.47;5020574;28;20057;-74
2022/02/26 03:43:39;;;;;;;22.98;11.38;;;;;;;3.69;47.60;94051.94;5016328;28;20112;-73
2022/02/26 03:46:04;;;;;;;18.77;10.48;;;;;;;3.58;47.71;94031.94;5021284;28;20148;-74
2022/02/26 03:48:29;;;;;;;21.08;10.48;;;;;;;3.58;48.19;94045.09;5019028;28;20101;-75
2022/02/26 03:50:55;;;;;;;15.25;9.70;;;;;;;3.63;47.97;94037.97;5010890;28;20168;-75
2022/02/26 03:53:20;;;;;;;15.77;9.68;;;;;;;3.63;47.70;94026.66;5032046;28;20390;-74
2022/02/26 03:55:56;;;;;;;19.00;9.45;;;;;;;3.67;47.79;94046.91;5019232;28;20356;-73
2022/02/26 03:58:22;;;;;;;16.75;10.52;;;;;;;3.63;48.07;94037.19;5026823;28;20035;-75
2022/02/26 04:00:47;;;;;;;21.45;10.93;;;;;;;3.72;47.60;94031.13;5017849;28;20041;-74
2022/02/26 04:03:13;;;;;;;17.77;10.95;;;;;;;3.37;47.93;93987.25;5018670;28;20502;-75
2022/02/26 04:05:43;;;;;;;21.98;10.77;;;;;;;3.84;47.87;94051.91;5018532;28;20087;-73
2022/02/26 04:08:09;;;;;;;16.60;10.90;;;;;;;3.59;48.10;94025.63;5016936;28;20030;-74
2022/02/26 04:10:34;;;;;;;16.88;10.88;;;;;;;3.67;48.12;94022.47;5017381;28;20055;-72
2022/02/26 04:13:05;;;;;;;19.50;10.75;;;;;;;3.81;48.17;94044.56;5015362;28;20120;-73
2022/02/26 04:15:30;;;;;;;22.55;9.70;;;;;;;3.84;47.93;94028.25;5017134;28;20030;-74
2022/02/26 04:17:56;;;;;;;18.58;10.75;;;;;;;3.48;48.25;93993.28;5017167;28;20514;-74
2022/02/26 04:20:21;;;;;;;18.35;10.65;;;;;;;3.72;48.13;94027.75;5012867;28;20107;-74
2022/02/26 04:22:47;;;;;;;13.05;8.68;;;;;;;3.62;48.55;94038.25;5038227;28;20037;-75
2022/02/26 04:25:12;;;;;;;22.50;10.38;;;;;;;3.44;49.25;94070.31;5010423;28;20045;-75
2022/02/26 04:27:38;;;;;;;23.00;10.60;;;;;;;3.30;49.60;94055.06;5021929;28;20047;-74
2022/02/26 04:30:06;;;;;;;20.40;10.05;;;;;;;3.47;49.68;94054.84;5013037;28;20596;-76
2022/02/26 04:32:32;;;;;;;17.75;10.75;;;;;;;3.63;49.14;94068.75;5020877;28;20498;-74
2022/02/26 04:35:04;;;;;;;18.85;11.38;;;;;;;3.57;48.99;94054.84;5020772;28;20056;-73
2022/02/26 04:37:29;;;;;;;15.77;9.65;;;;;;;3.41;49.21;94066.38;5025845;28;20111;-75
2022/02/26 04:39:55;;;;;;;21.92;10.73;;;;;;;3.37;49.58;94065.34;5022900;28;20547;-74
2022/02/26 04:42:21;;;;;;;23.60;12.25;;;;;;;3.48;49.35;94060.88;5011422;28;20042;-73
2022/02/26 04:44:46;;;;;;;19.10;10.63;;;;;;;3.40;49.69;94076.13;5025763;28;20045;-74
2022/02/26 04:47:12;;;;;;;18.35;10.95;;;;;;;3.29;49.67;94069.25;5011645;28;20037;-74
2022/02/26 04:49:39;;;;;;;20.50;11.13;;;;;;;3.10;49.77;94039.28;5021727;28;20025;-75
2022/02/26 04:52:05;;;;;;;17.85;10.88;;;;;;;2.73;49.86;94013.19;5021523;28;20526;-74
2022/02/26 04:54:31;;;;;;;19.35;10.40;;;;;;;3.09;49.96;94063.19;5012939;28;20513;-74
2022/02/26 04:56:56;;;;;;;24.10;11.07;;;;;;;3.12;49.88;94079.22;5020677;28;20037;-75
2022/02/26 04:59:22;;;;;;;20.80;10.93;;;;;;;3.17;50.14;94074.00;5024175;28;22084;-76
2022/02/26 05:01:47;;;;;;;21.35;9.23;;;;;;;3.28;49.86;94086.06;5021896;28;20376;-74
2022/02/26 05:04:24;;;;;;;28.50;12.57;;;;;;;3.34;49.76;94090.31;5017015;28;20036;-74
2022/02/26 05:06:50;;;;;;;21.98;12.57;;;;;;;3.21;50.00;94082.94;5041729;28;20048;-75
2022/02/26 05:09:15;;;;;;;17.38;10.35;;;;;;;3.47;49.63;94098.75;5023622;28;20411;-75
2022/02/26 05:11:40;;;;;;;27.65;13.23;;;;;;;3.47;49.58;94098.75;5010466;28;20973;-74
2022/02/26 05:14:06;;;;;;;22.08;13.02;;;;;;;3.46;49.09;94073.50;5022878;28;20032;-74
2022/02/26 05:16:31;;;;;;;22.42;11.85;;;;;;;3.72;48.81;94098.75;5017200;28;20036;-73
2022/02/26 05:18:57;;;;;;;21.02;10.35;;;;;;;3.79;48.60;94105.31;5025709;28;20359;-75
2022/02/26 05:21:26;;;;;;;19.00;11.02;;;;;;;3.97;48.33;94124.25;5023138;28;20037;-73
2022/02/26 05:23:51;;;;;;;21.08;11.25;;;;;;;3.76;48.45;94115.59;5022128;28;24426;-74
2022/02/26 05:26:18;;;;;;;18.90;11.10;;;;;;;3.76;48.69;94131.38;5017728;28;20033;-73
2022/02/26 05:28:44;;;;;;;21.08;12.18;;;;;;;3.89;48.40;94130.84;5028247;28;20029;-74
2022/02/26 05:31:09;;;;;;;24.08;11.70;;;;;;;3.65;49.09;94137.69;5026318;28;20063;-74
2022/02/26 05:33:35;;;;;;;21.23;12.40;;;;;;;3.57;48.91;94115.31;5021459;28;20123;-75
2022/02/26 05:36:02;;;;;;;23.10;10.73;;;;;;;3.87;48.65;94154.00;5016752;28;20533;-75
2022/02/26 05:38:30;;;;;;;21.23;10.32;;;;;;;3.96;48.48;94152.44;5025323;28;20077;-73
2022/02/26 05:40:55;;;;;;;21.73;11.93;;;;;;;3.85;48.58;94150.84;5024889;28;20664;-74
2022/02/26 05:43:21;;;;;;;16.50;11.48;;;;;;;3.70;49.08;94156.09;5018975;28;20128;-74
2022/02/26 05:45:47;;;;;;;22.70;12.07;;;;;;;3.61;49.31;94165.56;5015181;28;21408;-74
2022/02/26 05:48:12;;;;;;;26.00;14.10;;;;;;;3.50;49.55;94158.69;5022040;28;20188;-74
2022/02/26 05:50:39;;;;;;;22.30;13.38;;;;;;;3.58;49.35;94145.03;5015485;28;20572;-76
2022/02/26 05:53:04;;;;;;;22.05;13.00;;;;;;;3.84;49.16;94157.16;5024871;28;20018;-74
2022/02/26 05:55:31;;;;;;;25.25;13.38;;;;;;;3.62;49.08;94135.59;5022140;28;20141;-74
2022/02/26 05:57:56;;;;;;;22.77;12.68;;;;;;;3.63;49.02;94129.25;5026598;28;20036;-74
2022/02/26 06:00:22;;;;;;;19.48;12.00;;;;;;;3.78;48.76;94155.56;5026463;28;22101;-73
2022/02/26 06:02:47;;;;;;;25.00;12.95;;;;;;;3.85;48.90;94166.63;5016517;28;20492;-73
2022/02/26 06:05:13;;;;;;;21.83;10.75;;;;;;;3.72;48.71;94152.13;5019949;28;20025;-74
2022/02/26 06:07:38;;;;;;;24.48;12.75;;;;;;;3.77;48.82;94172.44;5019554;28;20025;-75
2022/02/26 06:10:05;;;;;;;20.83;12.05;;;;;;;3.62;49.24;94165.31;5018069;28;20139;-75
2022/02/26 06:12:30;;;;;;;22.25;11.57;;;;;;;3.54;49.38;94165.81;5024750;28;20044;-73
2022/02/26 06:14:56;;;;;;;16.95;9.00;;;;;;;3.60;49.51;94162.13;5021846;28;20540;-73
2022/02/26 06:17:22;;;;;;;17.13;10.90;;;;;;;3.63;49.28;94147.66;5021751;28;20033;-74
2022/02/26 06:19:47;;;;;;;21.42;10.35;;;;;;;3.69;49.24;94144.00;5020756;28;20063;-74
2022/02/26 06:22:13;;;;;;;19.40;10.65;;;;;;;3.90;48.88;94137.69;5020502;28;20053;-74
2022/02/26 06:24:39;;;;;;;21.20;10.57;;;;;;;4.12;48.30;94147.94;5020727;28;20041;-75
2022/02/26 06:27:04;;;;;;;16.23;9.75;;;;;;;4.20;48.51;94164.03;5019743;28;20072;-74
2022/02/26 06:29:30;;;;;;;18.77;9.93;;;;;;;3.93;48.20;94110.06;5017500;28;20068;-72
2022/02/26 06:31:56;;;;;;;16.98;9.55;;;;;;;4.28;47.77;94158.22;5016707;28;20059;-74
2022/02/26 06:34:21;;;;;;;25.58;11.77;;;;;;;4.27;47.60;94159.25;5016486;28;20652;-72
2022/02/26 06:36:47;;;;;;;27.10;13.65;;;;;;;4.45;47.27;94175.59;5017333;28;20053;-74
2022/02/26 06:39:14;;;;;;;28.13;16.05;;;;;;;4.64;47.30;94179.25;5023709;28;20076;-76
2022/02/26 06:41:40;;;;;;;26.85;15.48;;;;;;;4.84;46.88;94184.50;5024378;28;20188;-75
2022/02/26 06:44:06;;;;;;;23.67;10.85;;;;;;;4.88;46.60;94182.09;5010257;28;20094;-74
2022/02/26 06:46:35;;;;;;;24.65;12.73;;;;;;;4.98;46.10;94163.63;5018857;28;20413;-74
2022/02/26 06:49:02;;;;;;;21.38;12.07;;;;;;;5.05;45.82;94156.19;5016853;28;20048;-75
2022/02/26 06:51:28;;;;;;;18.42;11.25;;;;;;;5.41;45.39;94188.50;5021941;28;20043;-75
2022/02/26 06:53:53;;;;;;;23.17;11.88;;;;;;;5.40;45.16;94168.44;5019893;28;20045;-74
2022/02/26 06:56:18;;;;;;;20.70;10.77;;;;;;;5.30;45.42;94193.00;5018383;28;20059;-74
2022/02/26 06:58:44;;;;;;;16.55;9.77;;;;;;;5.08;45.78;94196.00;5015946;28;20548;-73
2022/02/26 07:01:10;;;;;;;23.92;9.48;;;;;;;5.33;45.84;94191.69;5020979;28;20617;-74
2022/02/26 07:03:36;;;;;;;18.15;11.27;;;;;;;5.41;45.49;94185.84;5019534;28;20088;-75
2022/02/26 07:06:01;;;;;;;23.33;12.05;;;;;;;5.50;45.49;94192.13;5019250;28;20033;-74
2022/02/26 07:08:27;;;;;;;19.63;11.68;;;;;;;5.24;45.56;94159.00;5026818;28;20057;-76
2022/02/26 07:10:54;;;;;;;18.73;10.68;;;;;;;5.62;45.18;94194.44;5019845;28;20033;-74
2022/02/26 07:13:19;;;;;;;18.35;10.15;;;;;;;5.48;44.96;94195.03;5021463;28;20040;-74
2022/02/26 07:15:45;;;;;;;18.48;9.77;;;;;;;5.16;45.29;94141.91;5026206;28;20045;-73
2022/02/26 07:18:10;;;;;;;17.88;11.90;;;;;;;5.38;45.04;94167.94;5016081;28;20056;-75
2022/02/26 07:20:37;;;;;;;16.38;9.70;;;;;;;5.79;44.47;94190.38;5021762;28;20045;-75
2022/02/26 07:23:07;;;;;;;18.83;10.68;;;;;;;6.00;44.22;94186.56;5018063;28;20029;-74
2022/02/26 07:25:32;;;;;;;26.65;12.18;;;;;;;5.90;44.47;94178.69;5018648;28;20509;-74
2022/02/26 07:27:58;;;;;;;27.00;13.50;;;;;;;6.04;44.45;94193.91;5023111;28;20051;-74
2022/02/26 07:30:23;;;;;;;22.65;11.85;;;;;;;5.99;44.13;94197.38;5019784;28;20562;-74
2022/02/26 07:32:49;;;;;;;20.85;11.25;;;;;;;5.62;44.76;94171.50;5020107;28;20638;-72
2022/02/26 07:35:15;;;;;;;21.67;12.10;;;;;;;5.91;44.15;94182.94;5031575;28;20030;-75
2022/02/26 07:37:43;;;;;;;21.35;10.75;;;;;;;5.87;44.60;94168.69;5019673;28;20041;-75
2022/02/26 07:40:10;;;;;;;20.55;10.70;;;;;;;5.96;44.03;94169.69;5024066;28;20538;-72
2022/02/26 07:42:36;;;;;;;22.83;10.30;;;;;;;5.96;44.43;94188.16;5019070;28;20041;-74
2022/02/26 07:45:03;;;;;;;18.75;11.05;;;;;;;5.83;44.17;94125.41;5019586;28;20069;-77
2022/02/26 07:47:28;;;;;;;17.85;11.07;;;;;;;6.35;43.54;94187.38;5010964;28;20559;-75
2022/02/26 07:49:53;;;;;;;15.60;10.43;;;;;;;6.08;43.83;94160.63;5020702;28;20110;-75
2022/02/26 07:52:19;;;;;;;18.80;9.27;;;;;;;6.19;43.61;94178.00;5011309;28;20128;-75
2022/02/26 07:54:44;;;;;;;15.70;9.85;;;;;;;6.12;43.37;94167.69;5013276;28;20044;-74
2022/02/26 07:57:10;;;;;;;16.20;9.90;;;;;;;6.13;43.52;94166.66;5020546;28;20042;-76
2022/02/26 07:59:35;;;;;;;21.50;9.80;;;;;;;6.17;43.19;94148.41;5020472;28;20033;-74
2022/02/26 08:02:00;;;;;;;20.30;10.48;;;;;;;6.19;43.12;94165.56;5017966;28;20545;-74
2022/02/26 08:04:27;;;;;;;17.95;9.52;;;;;;;6.22;43.17;94177.44;5013399;28;20461;-74
2022/02/26 08:06:53;;;;;;;21.90;10.43;;;;;;;6.45;42.90;94195.22;5018480;28;20045;-75
2022/02/26 08:09:18;;;;;;;18.48;9.95;;;;;;;6.52;42.85;94186.94;5019306;28;20052;-77
2022/02/26 08:11:43;;;;;;;18.30;10.27;;;;;;;6.32;42.97;94178.13;5019383;28;20041;-76
2022/02/26 08:14:09;;;;;;;17.60;10.27;;;;;;;6.44;42.93;94180.44;5022388;28;20083;-77
2022/02/26 08:16:34;;;;;;;17.45;10.63;;;;;;;6.60;42.60;94167.88;5022324;28;20032;-76
2022/02/26 08:19:00;;;;;;;20.40;10.18;;;;;;;6.27;42.80;94143.06;5021599;28;20060;-77
2022/02/26 08:21:26;;;;;;;16.58;10.25;;;;;;;6.30;43.01;94176.84;5019056;28;20036;-72
2022/02/26 08:23:52;;;;;;;21.88;10.45;;;;;;;6.19;43.01;94148.94;5028897;28;20633;-77
2022/02/26 08:26:19;;;;;;;17.35;10.05;;;;;;;6.26;43.26;94167.91;5020239;28;20029;-73
2022/02/26 08:28:46;;;;;;;19.83;11.18;;;;;;;6.41;43.02;94151.91;5020597;28;20040;-75
2022/02/26 08:31:12;;;;;;;20.67;11.13;;;;;;;6.40;42.83;94166.19;5024769;28;20036;-74
2022/02/26 08:33:38;;;;;;;18.25;11.02;;;;;;;6.43;42.76;94149.78;5020895;28;20040;-77
2022/02/26 08:36:03;;;;;;;18.27;10.23;;;;;;;6.46;42.97;94145.81;5021363;28;20044;-77
2022/02/26 08:38:29;;;;;;;17.65;10.00;;;;;;;6.48;42.43;94120.66;5018472;28;20569;-76
2022/02/26 08:40:54;;;;;;;17.63;9.40;;;;;;;6.84;42.01;94145.69;5026060;28;20083;-77
2022/02/26 08:43:21;;;;;;;19.92;9.70;;;;;;;6.91;41.80;94152.47;5021594;28;20053;-77
2022/02/26 08:45:47;;;;;;;16.23;10.05;;;;;;;6.82;41.99;94134.59;5017207;28;20128;-75
2022/02/26 08:48:12;;;;;;;21.50;11.38;;;;;;;7.11;41.27;94134.50;5019675;28;20041;-77
2022/02/26 08:50:38;;;;;;;13.88;8.30;;;;;;;6.64;41.49;94126.59;5020150;28;20048;-77
2022/02/26 08:53:03;;;;;;;17.30;8.65;;;;;;;6.53;41.93;94140.97;5037074;28;20059;-76
2022/02/26 08:55:29;;;;;;;21.48;10.18;;;;;;;6.84;40.81;94126.38;5028131;28;20375;-75
2022/02/26 08:57:56;;;;;;;15.63;9.13;;;;;;;6.85;40.63;94085.63;5022311;28;25031;-74
2022/02/26 09:00:21;;;;;;;16.92;10.18;;;;;;;7.57;40.21;94142.66;5028489;28;20252;-76
2022/02/26 09:02:46;;;;;;;14.77;8.23;;;;;;;6.82;40.36;94137.22;5020393;28;20506;-76
2022/02/26 09:05:12;;;;;;;16.25;8.45;;;;;;;6.53;40.63;94131.19;5024966;28;20029;-75
2022/02/26 09:07:38;;;;;;;12.60;8.73;;;;;;;6.73;40.69;94131.00;5021587;28;20032;-72
2022/02/26 09:10:05;;;;;;;17.63;9.30;;;;;;;7.18;39.75;94124.38;5026001;28;20048;-76
2022/02/26 09:12:30;;;;;;;13.70;8.43;;;;;;;7.15;39.51;94134.72;5020749;28;20037;-77
2022/02/26 09:14:56;;;;;;;17.98;8.85;;;;;;;7.23;40.40;94144.69;5026110;28;20033;-77
2022/02/26 09:17:21;;;;;;;16.38;9.48;;;;;;;6.88;40.14;94137.16;5021645;28;20036;-76
2022/02/26 09:19:47;;;;;;;17.73;9.93;;;;;;;6.69;41.13;94131.84;5020290;28;20025;-77
2022/02/26 09:22:12;;;;;;;17.08;9.88;;;;;;;6.46;42.63;94141.28;5020760;28;20037;-75
2022/02/26 09:24:38;;;;;;;18.67;10.32;;;;;;;6.13;43.29;94144.72;5021479;28;20099;-75
2022/02/26 09:27:04;;;;;;;20.45;11.38;;;;;;;6.10;43.14;94138.16;5021320;28;20040;-75
2022/02/26 09:29:29;;;;;;;19.60;10.40;;;;;;;5.80;43.08;94125.97;5023368;28;20072;-76
2022/02/26 09:31:55;;;;;;;23.77;10.45;;;;;;;6.07;42.82;94125.50;5021013;28;20049;-75
2022/02/26 09:34:21;;;;;;;18.98;10.90;;;;;;;6.01;42.46;94131.91;5022024;28;20064;-76
2022/02/26 09:36:47;;;;;;;16.85;10.65;;;;;;;6.64;41.92;94127.38;5021360;28;20041;-75
2022/02/26 09:39:13;;;;;;;22.73;11.15;;;;;;;7.13;41.40;94131.59;5019987;28;20395;-75
2022/02/26 09:41:42;;;;;;;17.48;10.20;;;;;;;6.37;41.12;94100.69;5022482;28;20063;-76
2022/02/26 09:44:08;;;;;;;22.90;11.95;;;;;;;6.86;41.01;94135.59;5022599;28;20388;-77
2022/02/26 09:46:34;;;;;;;17.55;10.77;;;;;;;7.24;40.04;94109.22;5018199;28;20013;-76
2022/02/26 09:49:09;;;;;;;19.50;11.05;;;;;;;7.29;40.50;94125.81;5018207;28;20076;-75
2022/02/26 09:51:38;;;;;;;18.70;11.05;;;;;;;7.63;40.15;94133.56;5022828;28;20288;-76
2022/02/26 09:54:15;;;;;;;17.50;9.98;;;;;;;7.76;39.45;94121.50;5023324;28;20091;-74
2022/02/26 09:56:40;;;;;;;19.17;11.05;;;;;;;8.18;40.01;94122.44;5027089;28;20045;-77
2022/02/26 09:59:06;;;;;;;17.38;11.63;;;;;;;7.05;40.32;94121.63;5018057;28;20519;-76
2022/02/26 10:01:31;;;;;;;15.88;10.30;;;;;;;6.55;41.16;94123.00;5020769;28;20032;-76
2022/02/26 10:04:21;;;;;;;20.75;11.32;;;;;;;6.28;41.74;94112.94;5018650;28;20511;-75
2022/02/26 10:06:47;;;;;;;18.70;10.77;;;;;;;6.47;41.21;94111.16;5035311;28;21557;-76
2022/02/26 10:09:17;;;;;;;22.15;10.68;;;;;;;6.74;41.91;94122.00;5021272;28;20033;-75
2022/02/26 10:11:42;;;;;;;19.58;11.07;;;;;;;7.13;41.34;94110.44;5011362;28;20073;-77
2022/02/26 10:14:17;;;;;;;17.90;10.40;;;;;;;7.69;40.08;94105.94;5024442;28;20120;-75
2022/02/26 10:16:48;;;;;;;16.83;10.40;;;;;;;7.40;39.82;94118.53;5018407;28;20083;-77
2022/02/26 10:19:26;;;;;;;21.30;11.02;;;;;;;7.36;40.32;94112.25;5038019;28;20515;-76
2022/02/26 10:21:53;;;;;;;16.40;8.93;;;;;;;7.42;40.04;94105.03;5022076;28;20132;-77
2022/02/26 10:24:19;;;;;;;21.08;11.88;;;;;;;7.15;39.13;94092.41;5022000;28;20088;-74
2022/02/26 10:26:51;;;;;;;17.98;9.25;;;;;;;7.20;39.72;94100.28;5012589;28;20513;-76
2022/02/26 10:29:17;;;;;;;14.90;9.35;;;;;;;6.85;40.01;94096.22;5023547;28;20139;-75
2022/02/26 10:31:58;;;;;;;20.27;11.25;;;;;;;6.89;40.07;94094.59;5013150;28;20395;-74
2022/02/26 10:34:26;;;;;;;18.20;10.65;;;;;;;7.10;39.93;94100.41;5019579;28;20718;-74
2022/02/26 10:37:05;;;;;;;19.60;10.75;;;;;;;6.54;40.33;94095.78;5009763;28;20045;-73
2022/02/26 10:39:32;;;;;;;16.13;10.15;;;;;;;6.68;40.61;94086.09;5018870;28;20095;-75
2022/02/26 10:41:58;;;;;;;15.45;10.15;;;;;;;6.61;40.84;94083.00;5021579;28;20045;-75
2022/02/26 10:44:24;;;;;;;16.50;9.75;;;;;;;6.00;40.78;93987.75;5023465;28;20594;-75
2022/02/26 10:46:51;;;;;;;25.27;12.88;;;;;;;6.59;40.75;94087.78;5020756;28;20037;-72
2022/02/26 10:49:18;;;;;;;18.58;11.00;;;;;;;6.32;40.94;94064.56;5023481;28;20037;-75
2022/02/26 10:51:46;;;;;;;17.15;11.05;;;;;;;6.47;40.90;94047.75;5022551;28;20916;-75
2022/02/26 10:54:23;;;;;;;19.58;12.05;;;;;;;6.93;40.54;94079.75;5019654;28;20135;-72
2022/02/26 10:56:49;;;;;;;21.50;11.63;;;;;;;7.59;39.53;94084.91;5021023;28;20041;-75
2022/02/26 10:59:34;;;;;;;17.65;11.75;;;;;;;7.36;39.88;94079.69;5015034;28;20079;-75
2022/02/26 11:02:06;;;;;;;23.23;10.32;;;;;;;6.98;38.87;94078.88;5018444;28;20069;-74
2022/02/26 11:04:33;;;;;;;21.30;10.63;;;;;;;7.38;38.02;94072.28;5015093;28;20551;-74
2022/02/26 11:06:59;;;;;;;12.73;6.90;;;;;;;7.19;37.64;94062.44;5017301;28;20044;-76
2022/02/26 11:09:25;;;;;;;14.95;8.52;;;;;;;7.63;37.12;94054.13;5015697;28;20866;-79
2022/02/26 11:11:51;;;;;;;16.42;8.27;;;;;;;8.16;37.17;94053.88;5009374;28;20068;-76
2022/02/26 11:14:21;;;;;;;15.13;9.20;;;;;;;8.02;36.42;94040.56;5014759;28;20128;-77
2022/02/26 11:16:52;;;;;;;13.35;7.90;;;;;;;7.79;37.46;94062.66;4995828;28;20025;-73
2022/02/26 11:19:20;;;;;;;15.52;7.93;;;;;;;7.61;37.05;94061.59;5013388;28;20049;-72
2022/02/26 11:21:49;;;;;;;14.15;7.20;;;;;;;7.88;36.52;94055.63;5008534;28;20692;-76
2022/02/26 11:24:16;;;;;;;10.45;7.63;;;;;;;7.47;35.83;94050.16;5018326;28;24198;-75